Time;durP1;ratioP1;P1;durP2;ratioP2;P2;SDS_P1;SDS_P2;PMS_P1;PMS_P2;Temp;Humidity;BMP_temperature;BMP_pressure;BME280_temperature;BME280_humidity;BME280_pressure;Samples;Min_cycle;Max_cycle;Signal;HPM_P1;HPM_P2
2022/08/03 00:02:06;;;;;;;6.05;2.70;;;28.50;89.20;;;;;;5070436;28;20056;-72
2022/08/03 00:04:33;;;;;;;5.45;3.03;;;28.50;89.20;;;;;;5064742;28;20036;-69
2022/08/03 00:07:01;;;;;;;4.43;2.45;;;28.50;89.00;;;;;;5064194;28;20091;-69
2022/08/03 00:09:30;;;;;;;4.47;2.22;;;28.60;88.50;;;;;;5055099;28;20041;-69
2022/08/03 00:11:57;;;;;;;5.22;2.50;;;28.60;88.60;;;;;;5067040;28;20053;-68
2022/08/03 00:14:24;;;;;;;4.15;2.78;;;28.60;88.50;;;;;;5067900;28;20068;-69
2022/08/03 00:16:52;;;;;;;6.97;2.50;;;28.70;88.30;;;;;;5059508;28;20047;-68
2022/08/03 00:19:19;;;;;;;4.05;2.45;;;28.70;88.20;;;;;;5058011;28;20072;-70
2022/08/03 00:21:47;;;;;;;6.90;2.63;;;28.70;88.20;;;;;;5046176;28;20135;-69
2022/08/03 00:24:15;;;;;;;3.53;2.72;;;28.70;88.00;;;;;;5055381;28;20102;-70
2022/08/03 00:26:43;;;;;;;3.95;2.40;;;28.70;88.10;;;;;;5052813;28;20175;-69
2022/08/03 00:29:11;;;;;;;3.55;2.67;;;28.80;88.20;;;;;;5075618;28;20055;-69
2022/08/03 00:31:39;;;;;;;4.45;2.65;;;28.80;88.10;;;;;;5048459;28;20521;-70
2022/08/03 00:34:07;;;;;;;4.43;2.78;;;28.80;88.10;;;;;;5075866;28;20079;-68
2022/08/03 00:36:34;;;;;;;3.75;2.10;;;28.80;88.20;;;;;;5060379;28;20036;-73
2022/08/03 00:39:02;;;;;;;6.40;3.03;;;28.80;88.40;;;;;;5074071;28;20052;-68
2022/08/03 00:41:29;;;;;;;4.70;2.75;;;28.80;88.60;;;;;;5038941;28;20114;-73
2022/08/03 00:43:57;;;;;;;4.40;2.67;;;28.80;88.70;;;;;;5059693;28;20052;-69
2022/08/03 00:46:24;;;;;;;4.35;2.75;;;28.80;89.00;;;;;;5092669;28;20126;-69
2022/08/03 00:48:52;;;;;;;7.13;2.65;;;28.80;89.10;;;;;;5057163;28;20052;-68
2022/08/03 00:51:21;;;;;;;6.53;2.80;;;28.80;89.20;;;;;;5067399;28;20048;-70
2022/08/03 00:54:12;;;;;;;5.45;3.00;;;28.80;89.20;;;;;;5052088;28;20036;-68
2022/08/03 00:56:41;;;;;;;4.22;2.83;;;28.80;89.40;;;;;;5072445;28;20493;-69
2022/08/03 00:59:13;;;;;;;5.20;2.28;;;28.80;89.50;;;;;;5053120;28;20056;-69
2022/08/03 01:01:41;;;;;;;4.05;2.47;;;28.80;89.70;;;;;;5061631;28;20040;-70
2022/08/03 01:04:09;;;;;;;7.15;2.85;;;28.70;89.90;;;;;;5051217;28;20406;-69
2022/08/03 01:06:54;;;;;;;4.95;2.47;;;28.70;90.10;;;;;;5052736;28;20054;-71
2022/08/03 01:09:44;;;;;;;3.28;2.42;;;28.70;90.20;;;;;;5068281;28;20043;-69
2022/08/03 01:12:33;;;;;;;6.07;3.10;;;28.70;90.20;;;;;;5051388;28;20523;-69
2022/08/03 01:15:12;;;;;;;5.70;2.60;;;28.60;90.30;;;;;;5070703;28;20052;-68
2022/08/03 01:17:48;;;;;;;6.50;2.20;;;28.60;90.40;;;;;;5079860;28;20043;-68
2022/08/03 01:20:17;;;;;;;3.60;2.33;;;28.60;90.50;;;;;;5061654;28;20128;-69
2022/08/03 01:23:09;;;;;;;4.30;2.35;;;28.60;90.60;;;;;;5089534;28;20086;-69
2022/08/03 01:25:57;;;;;;;4.80;2.47;;;28.50;90.70;;;;;;5080135;28;20502;-68
2022/08/03 01:28:34;;;;;;;7.00;2.35;;;28.50;90.80;;;;;;5029488;28;20078;-69
2022/08/03 01:31:07;;;;;;;6.60;3.03;;;28.50;91.00;;;;;;5063300;28;20071;-68
2022/08/03 01:33:39;;;;;;;4.55;2.60;;;28.50;91.20;;;;;;5082134;28;20036;-69
2022/08/03 01:36:12;;;;;;;6.07;2.33;;;28.50;91.30;;;;;;5063345;28;20516;-69
2022/08/03 01:38:48;;;;;;;7.38;2.47;;;28.50;91.40;;;;;;5019934;28;20075;-69
2022/08/03 01:41:28;;;;;;;5.28;3.20;;;28.50;91.40;;;;;;5053949;28;20049;-68
2022/08/03 01:43:58;;;;;;;4.20;3.08;;;28.40;91.50;;;;;;5037725;28;20058;-70
2022/08/03 01:46:27;;;;;;;4.32;2.58;;;28.40;91.50;;;;;;5071463;28;20051;-68
2022/08/03 01:48:56;;;;;;;5.00;2.50;;;28.40;91.60;;;;;;5072223;28;20106;-69
2022/08/03 01:51:23;;;;;;;4.22;2.13;;;28.40;91.60;;;;;;5052840;28;20167;-70
2022/08/03 01:53:53;;;;;;;6.78;2.90;;;28.40;91.80;;;;;;5069890;28;20041;-70
2022/08/03 01:56:23;;;;;;;5.72;3.25;;;28.40;91.90;;;;;;5069826;28;20079;-71
2022/08/03 01:58:52;;;;;;;3.78;2.33;;;28.40;91.90;;;;;;5036174;28;20076;-70
2022/08/03 02:01:22;;;;;;;5.57;3.05;;;28.40;91.90;;;;;;5052275;28;20044;-70
2022/08/03 02:03:51;;;;;;;5.18;3.28;;;28.40;92.00;;;;;;5069986;28;20052;-71
2022/08/03 02:06:20;;;;;;;4.10;2.58;;;28.40;92.30;;;;;;5036769;28;20521;-69
2022/08/03 02:08:52;;;;;;;6.40;2.63;;;28.30;92.10;;;;;;5038382;28;20480;-69
2022/08/03 02:11:20;;;;;;;6.75;2.70;;;28.30;92.20;;;;;;5021210;28;20102;-69
2022/08/03 02:13:50;;;;;;;6.57;3.20;;;28.30;92.20;;;;;;5037643;28;20048;-69
2022/08/03 02:16:21;;;;;;;4.20;2.67;;;28.30;92.20;;;;;;5071501;28;20040;-68
2022/08/03 02:18:48;;;;;;;5.95;2.67;;;28.30;92.20;;;;;;5071787;28;20052;-68
2022/08/03 02:21:16;;;;;;;3.63;2.50;;;28.30;92.30;;;;;;5037648;28;20067;-70
2022/08/03 02:23:44;;;;;;;5.07;2.70;;;28.30;92.30;;;;;;5053927;28;20041;-70
2022/08/03 02:26:19;;;;;;;4.05;2.95;;;28.30;92.30;;;;;;5000199;28;20522;-69
2022/08/03 02:28:50;;;;;;;7.50;3.45;;;28.20;92.40;;;;;;5031676;28;20045;-69
2022/08/03 02:31:23;;;;;;;8.32;2.83;;;28.20;92.40;;;;;;5014531;28;20187;-69
2022/08/03 02:33:54;;;;;;;5.57;2.88;;;28.20;92.40;;;;;;5030552;28;20038;-73
2022/08/03 02:36:26;;;;;;;5.10;2.88;;;28.20;92.50;;;;;;5031748;28;20047;-68
2022/08/03 02:38:58;;;;;;;5.13;2.90;;;28.20;92.50;;;;;;5034581;28;20046;-68
2022/08/03 02:41:30;;;;;;;5.35;2.80;;;28.20;92.60;;;;;;5034548;28;20065;-69
2022/08/03 02:44:02;;;;;;;5.35;3.42;;;28.20;92.60;;;;;;5034377;28;20045;-69
2022/08/03 02:46:33;;;;;;;6.75;3.25;;;28.20;92.60;;;;;;5034378;28;20406;-68
2022/08/03 02:49:02;;;;;;;5.15;2.85;;;28.20;92.80;;;;;;5034616;28;20099;-68
2022/08/03 02:51:34;;;;;;;4.38;2.78;;;28.10;92.80;;;;;;5034349;28;20041;-69
2022/08/03 02:54:03;;;;;;;5.47;3.20;;;28.10;92.90;;;;;;5035412;28;20046;-69
2022/08/03 02:56:31;;;;;;;3.90;3.08;;;28.10;92.90;;;;;;5035782;28;20046;-70
2022/08/03 02:59:00;;;;;;;7.05;4.00;;;28.10;93.00;;;;;;5034446;28;20419;-70
2022/08/03 03:01:29;;;;;;;4.63;3.40;;;28.10;93.00;;;;;;5034034;28;20041;-69
2022/08/03 03:03:59;;;;;;;6.63;3.00;;;28.00;93.00;;;;;;5000926;28;20140;-72
2022/08/03 03:06:27;;;;;;;6.43;3.13;;;28.00;93.00;;;;;;5035295;28;20079;-72
2022/08/03 03:08:56;;;;;;;6.80;3.13;;;28.00;93.10;;;;;;5034369;28;20080;-68
2022/08/03 03:11:26;;;;;;;3.65;2.75;;;28.00;93.10;;;;;;5017954;28;20088;-70
2022/08/03 03:13:55;;;;;;;5.95;3.33;;;28.00;93.20;;;;;;5033770;28;20062;-70
2022/08/03 03:16:25;;;;;;;4.47;2.83;;;28.00;93.30;;;;;;5034848;28;20049;-69
2022/08/03 03:18:53;;;;;;;5.57;3.38;;;28.00;93.40;;;;;;5017462;28;20045;-69
2022/08/03 03:21:23;;;;;;;5.43;2.92;;;28.00;93.40;;;;;;5033811;28;20049;-68
2022/08/03 03:23:51;;;;;;;5.68;3.03;;;28.00;93.40;;;;;;5017402;28;20049;-80
2022/08/03 03:26:19;;;;;;;6.55;3.58;;;27.90;93.50;;;;;;5052051;28;20140;-70
2022/08/03 03:28:47;;;;;;;7.70;3.22;;;27.90;93.60;;;;;;5053563;28;20131;-69
2022/08/03 03:31:15;;;;;;;6.90;2.70;;;27.90;93.70;;;;;;5053630;28;20059;-68
2022/08/03 03:33:43;;;;;;;5.00;2.97;;;27.90;93.80;;;;;;5053813;28;20102;-69
2022/08/03 03:36:10;;;;;;;5.63;3.22;;;27.90;93.90;;;;;;5053463;28;20041;-70
2022/08/03 03:38:38;;;;;;;4.75;2.95;;;27.90;94.00;;;;;;5053308;28;20139;-69
2022/08/03 03:41:06;;;;;;;6.80;3.03;;;27.90;94.10;;;;;;5054413;28;20127;-69
2022/08/03 03:43:34;;;;;;;4.53;2.75;;;27.90;94.20;;;;;;5037039;28;20123;-69
2022/08/03 03:46:01;;;;;;;6.25;3.22;;;27.90;94.30;;;;;;5053458;28;20392;-68
2022/08/03 03:48:29;;;;;;;11.82;3.22;;;27.90;94.30;;;;;;5053841;28;20033;-69
2022/08/03 03:50:58;;;;;;;6.70;2.90;;;27.90;94.50;;;;;;5069914;28;20045;-69
2022/08/03 03:53:25;;;;;;;6.90;2.92;;;27.80;94.50;;;;;;5053223;28;20053;-69
2022/08/03 03:55:53;;;;;;;8.35;3.45;;;27.80;94.60;;;;;;5052933;28;20037;-68
2022/08/03 03:58:21;;;;;;;6.72;3.15;;;27.80;94.70;;;;;;5053415;28;20045;-68
2022/08/03 04:00:49;;;;;;;8.10;3.50;;;27.80;94.80;;;;;;5054383;28;20073;-68
2022/08/03 04:03:17;;;;;;;8.40;3.22;;;27.80;94.80;;;;;;5036381;28;20071;-69
2022/08/03 04:11:40;;;;;;;4.65;3.00;;;27.80;94.80;;;;;;5054239;28;20445;-69
2022/08/03 04:14:10;;;;;;;7.43;3.10;;;27.80;94.90;;;;;;5053608;28;20045;-69
2022/08/03 04:16:43;;;;;;;6.40;3.72;;;27.80;94.90;;;;;;5052772;28;20495;-69
2022/08/03 04:19:16;;;;;;;7.78;3.17;;;27.80;94.90;;;;;;5052727;28;20122;-69
2022/08/03 04:21:50;;;;;;;5.05;2.92;;;27.80;94.80;;;;;;5037111;28;20052;-68
2022/08/03 04:24:21;;;;;;;7.72;2.88;;;27.90;94.80;;;;;;5021956;28;20102;-68
2022/08/03 04:26:50;;;;;;;4.22;3.00;;;27.90;94.80;;;;;;5073969;28;20072;-68
2022/08/03 04:29:21;;;;;;;4.82;2.97;;;27.90;94.80;;;;;;5073723;28;20044;-69
2022/08/03 04:31:51;;;;;;;7.05;3.15;;;28.00;94.80;;;;;;5073542;28;20068;-68
2022/08/03 04:34:18;;;;;;;7.38;3.47;;;28.10;94.90;;;;;;5039921;28;20056;-70
2022/08/03 04:36:53;;;;;;;6.80;2.80;;;28.20;94.60;;;;;;5039367;28;20037;-68
2022/08/03 04:39:26;;;;;;;9.35;3.80;;;28.30;94.50;;;;;;5073757;28;20040;-69
2022/08/03 04:41:56;;;;;;;7.00;4.15;;;28.40;94.40;;;;;;5055893;28;20076;-68
2022/08/03 04:44:25;;;;;;;7.00;2.80;;;28.50;94.40;;;;;;5039508;28;20102;-68
2022/08/03 04:46:54;;;;;;;6.18;2.97;;;28.60;94.30;;;;;;5056041;28;20051;-68
2022/08/03 04:49:23;;;;;;;5.45;3.00;;;28.60;94.20;;;;;;5073541;28;20106;-70
2022/08/03 04:51:52;;;;;;;6.75;2.60;;;28.70;94.20;;;;;;5055661;28;20040;-73
2022/08/03 04:54:19;;;;;;;6.65;3.47;;;28.80;94.10;;;;;;5039287;28;20148;-68
2022/08/03 04:56:47;;;;;;;7.15;2.75;;;28.90;93.90;;;;;;5055912;28;20119;-68
2022/08/03 04:59:16;;;;;;;7.60;2.90;;;29.00;93.80;;;;;;5055119;28;20045;-67
2022/08/03 05:01:44;;;;;;;8.45;3.35;;;29.10;93.60;;;;;;5073484;28;20044;-68
2022/08/03 05:04:11;;;;;;;4.38;2.75;;;29.20;93.40;;;;;;5073027;28;20090;-69
2022/08/03 05:06:39;;;;;;;4.57;2.70;;;29.30;93.30;;;;;;5039241;28;20889;-69
2022/08/03 05:09:07;;;;;;;7.97;3.22;;;29.50;93.10;;;;;;5073078;28;20128;-68
2022/08/03 05:11:36;;;;;;;4.05;2.40;;;29.60;92.90;;;;;;5073334;28;20084;-70
2022/08/03 05:14:04;;;;;;;5.82;2.92;;;29.70;92.80;;;;;;5055177;28;20498;-68
2022/08/03 05:16:31;;;;;;;5.97;2.50;;;29.80;92.70;;;;;;5073135;28;20113;-69
2022/08/03 05:18:59;;;;;;;5.10;2.80;;;29.90;92.60;;;;;;5073188;28;20067;-72
2022/08/03 05:21:26;;;;;;;7.93;3.05;;;30.00;92.40;;;;;;5038729;28;20057;-69
2022/08/03 05:23:54;;;;;;;5.55;2.72;;;30.10;92.30;;;;;;5072475;28;20079;-69
2022/08/03 05:26:21;;;;;;;4.95;2.80;;;30.20;92.20;;;;;;5051682;28;20049;-68
2022/08/03 05:28:49;;;;;;;5.68;3.13;;;30.20;92.10;;;;;;5051647;28;20057;-68
2022/08/03 05:31:16;;;;;;;7.65;2.80;;;30.30;91.90;;;;;;5068163;28;20049;-69
2022/08/03 05:33:44;;;;;;;5.40;2.47;;;30.40;91.60;;;;;;5051581;28;20087;-68
2022/08/03 05:36:11;;;;;;;6.53;2.92;;;30.50;91.20;;;;;;5051180;28;20110;-68
2022/08/03 05:38:39;;;;;;;3.95;2.88;;;30.60;90.90;;;;;;5034856;28;20144;-68
2022/08/03 05:41:07;;;;;;;4.93;2.50;;;30.70;90.60;;;;;;5051517;28;20043;-68
2022/08/03 05:43:34;;;;;;;4.90;3.00;;;30.80;90.40;;;;;;5051536;28;20053;-69
2022/08/03 05:46:01;;;;;;;7.20;2.72;;;30.90;90.20;;;;;;5052244;28;20044;-68
2022/08/03 05:48:29;;;;;;;7.10;2.72;;;31.00;90.00;;;;;;5051026;28;20479;-69
2022/08/03 05:50:57;;;;;;;6.00;2.95;;;31.10;89.20;;;;;;5051070;28;20113;-68
2022/08/03 05:53:25;;;;;;;5.20;3.35;;;31.30;88.80;;;;;;5052204;28;20479;-69
2022/08/03 05:55:55;;;;;;;7.22;2.88;;;31.40;88.50;;;;;;5052156;28;20048;-68
2022/08/03 05:58:25;;;;;;;5.70;2.72;;;31.50;87.80;;;;;;5050853;28;20047;-68
2022/08/03 06:00:53;;;;;;;5.03;2.90;;;31.60;86.80;;;;;;5052342;28;20067;-68
2022/08/03 06:03:20;;;;;;;6.75;3.67;;;31.70;86.00;;;;;;5050806;28;20069;-70
2022/08/03 06:05:48;;;;;;;5.28;3.38;;;31.70;84.60;;;;;;5051287;28;20049;-69
2022/08/03 06:08:16;;;;;;;4.20;2.90;;;31.70;83.50;;;;;;5034769;28;20052;-70
2022/08/03 06:10:43;;;;;;;4.85;2.72;;;31.80;82.80;;;;;;5050553;28;20505;-68
2022/08/03 06:13:11;;;;;;;3.38;2.58;;;31.90;81.50;;;;;;5051734;28;20122;-69
2022/08/03 06:15:39;;;;;;;5.95;3.35;;;32.00;81.40;;;;;;5050586;28;20048;-70
2022/08/03 06:18:06;;;;;;;4.50;2.53;;;32.10;80.90;;;;;;5050285;28;20068;-68
2022/08/03 06:20:34;;;;;;;4.68;2.70;;;32.10;80.20;;;;;;5050808;28;20137;-68
2022/08/03 06:23:01;;;;;;;3.78;2.67;;;32.20;80.20;;;;;;5051871;28;20099;-71
2022/08/03 06:25:29;;;;;;;5.13;3.65;;;32.20;78.50;;;;;;5067038;28;20061;-69
2022/08/03 06:27:58;;;;;;;3.38;2.45;;;32.30;78.40;;;;;;5033599;28;20525;-68
2022/08/03 06:30:26;;;;;;;3.72;2.72;;;32.30;77.90;;;;;;5050365;28;20044;-69
2022/08/03 06:32:53;;;;;;;5.60;2.60;;;32.40;77.50;;;;;;5052082;28;20045;-69
2022/08/03 06:35:21;;;;;;;4.40;2.60;;;32.40;77.20;;;;;;5051517;28;20491;-70
2022/08/03 06:37:50;;;;;;;4.25;2.50;;;32.50;77.20;;;;;;5034254;28;20551;-68
2022/08/03 06:40:27;;;;;;;4.35;2.90;;;32.60;77.10;;;;;;5051475;28;20041;-69
2022/08/03 06:42:56;;;;;;;4.35;2.88;;;32.60;76.50;;;;;;5051630;28;20095;-69
2022/08/03 06:45:24;;;;;;;7.53;2.97;;;32.70;75.80;;;;;;5052075;28;20430;-69
2022/08/03 06:48:07;;;;;;;4.18;2.83;;;32.90;75.90;;;;;;5050170;28;20069;-72
2022/08/03 06:50:38;;;;;;;4.82;3.30;;;32.90;75.40;;;;;;5034194;28;20442;-69
2022/08/03 06:53:10;;;;;;;6.18;3.00;;;33.00;74.80;;;;;;5050650;28;20048;-68
2022/08/03 06:55:37;;;;;;;6.53;3.10;;;33.20;74.90;;;;;;5050362;28;20557;-72
2022/08/03 06:58:05;;;;;;;3.92;2.92;;;33.20;74.10;;;;;;5050082;28;20048;-69
2022/08/03 07:00:33;;;;;;;5.82;2.97;;;33.20;73.50;;;;;;5050064;28;20076;-69
2022/08/03 07:03:00;;;;;;;3.75;2.55;;;33.20;73.40;;;;;;5051282;28;20064;-70
2022/08/03 07:05:29;;;;;;;5.32;2.60;;;33.30;73.60;;;;;;5033357;28;20098;-68
2022/08/03 07:07:58;;;;;;;4.50;2.33;;;33.40;72.90;;;;;;5049662;28;20140;-69
2022/08/03 07:10:26;;;;;;;3.35;2.40;;;33.40;72.70;;;;;;5050268;28;20041;-68
2022/08/03 07:12:54;;;;;;;4.75;3.08;;;33.50;73.20;;;;;;5050361;28;20056;-70
2022/08/03 07:15:23;;;;;;;5.53;2.50;;;33.50;72.50;;;;;;5049875;28;20088;-69
2022/08/03 07:17:51;;;;;;;4.43;2.72;;;33.50;72.10;;;;;;5049721;28;20502;-74
2022/08/03 07:20:18;;;;;;;6.30;3.10;;;33.60;72.90;;;;;;5049998;28;20068;-68
2022/08/03 07:22:46;;;;;;;5.63;2.95;;;33.70;73.30;;;;;;5051717;28;20080;-69
2022/08/03 07:25:14;;;;;;;3.42;2.72;;;33.70;72.60;;;;;;5070106;28;20529;-69
2022/08/03 07:27:48;;;;;;;7.72;3.22;;;33.80;72.50;;;;;;5036928;28;20049;-69
2022/08/03 07:30:17;;;;;;;5.22;2.85;;;34.00;72.40;;;;;;5067031;28;20115;-68
2022/08/03 07:32:45;;;;;;;3.47;2.38;;;34.10;72.00;;;;;;5057971;28;20552;-67
2022/08/03 07:35:13;;;;;;;4.50;2.70;;;34.10;72.20;;;;;;5061423;28;20098;-67
2022/08/03 07:37:40;;;;;;;5.25;2.70;;;34.20;72.50;;;;;;5059387;28;20070;-69
2022/08/03 07:40:08;;;;;;;4.05;2.60;;;34.30;72.10;;;;;;5058905;28;20106;-73
2022/08/03 07:42:36;;;;;;;5.20;2.83;;;34.20;72.30;;;;;;5060671;28;20089;-68
2022/08/03 07:45:04;;;;;;;4.70;2.97;;;34.10;71.90;;;;;;5064445;28;20135;-78
2022/08/03 07:47:32;;;;;;;3.83;3.15;;;34.10;72.10;;;;;;5059398;28;20053;-69
2022/08/03 07:49:59;;;;;;;5.40;2.50;;;34.10;72.10;;;;;;5028330;28;20130;-69
2022/08/03 07:55:14;;;;;;;3.50;2.42;;;34.30;71.30;;;;;;5067194;28;20386;-70
2022/08/03 07:57:42;;;;;;;3.70;2.35;;;34.40;71.40;;;;;;5071887;28;20040;-72
2022/08/03 08:00:16;;;;;;;3.75;2.50;;;34.40;70.10;;;;;;5059971;28;20041;-73
2022/08/03 08:02:44;;;;;;;6.03;2.33;;;34.20;69.20;;;;;;5035489;28;20453;-71
2022/08/03 08:05:13;;;;;;;4.80;2.20;;;34.20;69.50;;;;;;5046361;28;20075;-68
2022/08/03 08:07:41;;;;;;;3.17;2.33;;;34.30;69.50;;;;;;5070768;28;20055;-67
2022/08/03 08:10:09;;;;;;;4.13;2.50;;;34.40;69.30;;;;;;5060260;28;20056;-69
2022/08/03 08:12:38;;;;;;;3.97;2.92;;;34.50;68.90;;;;;;5052894;28;20045;-66
2022/08/03 08:15:07;;;;;;;5.55;2.45;;;34.50;68.70;;;;;;5052581;28;20060;-68
2022/08/03 08:17:52;;;;;;;4.22;2.72;;;34.60;68.30;;;;;;5053751;28;20051;-69
2022/08/03 08:20:27;;;;;;;4.68;2.50;;;34.60;68.10;;;;;;5053609;28;20151;-67
2022/08/03 08:22:57;;;;;;;4.10;2.53;;;34.70;67.50;;;;;;5035804;28;20045;-67
2022/08/03 08:25:25;;;;;;;4.70;2.45;;;34.90;67.60;;;;;;5035737;28;20380;-71
2022/08/03 08:27:54;;;;;;;3.85;2.60;;;35.00;67.40;;;;;;5036016;28;20052;-73
2022/08/03 08:30:23;;;;;;;3.45;2.70;;;35.00;66.80;;;;;;5052410;28;20445;-70
2022/08/03 08:32:50;;;;;;;5.90;2.47;;;35.00;66.70;;;;;;5052473;28;20119;-69
2022/08/03 08:35:18;;;;;;;3.10;2.03;;;34.90;65.80;;;;;;5052413;28;20487;-69
2022/08/03 08:37:46;;;;;;;4.43;2.75;;;34.70;65.80;;;;;;5052008;28;20144;-70
2022/08/03 08:40:14;;;;;;;4.82;2.35;;;34.80;67.00;;;;;;5035716;28;20144;-73
2022/08/03 08:42:43;;;;;;;3.30;2.20;;;34.80;66.70;;;;;;5035705;28;20095;-68
2022/08/03 08:45:18;;;;;;;4.05;2.55;;;34.80;67.60;;;;;;5053212;28;20041;-70
2022/08/03 08:47:48;;;;;;;3.55;2.20;;;34.80;66.80;;;;;;5035649;28;20041;-70
2022/08/03 08:50:20;;;;;;;2.72;2.20;;;34.90;66.40;;;;;;5053254;28;20045;-69
2022/08/03 08:52:51;;;;;;;3.90;2.22;;;34.90;66.60;;;;;;5052194;28;20044;-70
2022/08/03 08:55:22;;;;;;;4.60;2.90;;;35.00;66.20;;;;;;5052088;28;20464;-69
2022/08/03 08:57:55;;;;;;;3.88;2.38;;;35.00;65.20;;;;;;5051823;28;20045;-69
2022/08/03 09:00:23;;;;;;;4.03;2.33;;;35.10;65.60;;;;;;5051455;28;20072;-71
2022/08/03 09:02:50;;;;;;;4.22;2.45;;;35.00;64.30;;;;;;5051880;28;20076;-72
2022/08/03 09:05:19;;;;;;;4.78;2.45;;;34.90;65.10;;;;;;5053087;28;20055;-69
2022/08/03 09:07:53;;;;;;;4.50;2.33;;;34.70;63.70;;;;;;5052755;28;20535;-70
2022/08/03 09:10:21;;;;;;;6.32;2.97;;;34.80;63.70;;;;;;5052877;28;20064;-70
2022/08/03 09:12:51;;;;;;;5.53;2.90;;;34.90;63.30;;;;;;5051514;28;20092;-72
2022/08/03 09:15:32;;;;;;;3.90;2.55;;;34.90;63.70;;;;;;5052966;28;20045;-69
2022/08/03 09:18:02;;;;;;;3.80;2.67;;;35.00;63.90;;;;;;5052455;28;20488;-69
2022/08/03 09:20:32;;;;;;;4.82;2.35;;;35.00;63.60;;;;;;5051633;28;20044;-69
2022/08/03 09:23:07;;;;;;;3.15;2.00;;;35.00;64.40;;;;;;5051787;28;20670;-69
2022/08/03 09:25:45;;;;;;;3.20;2.20;;;35.10;64.00;;;;;;5051322;28;20088;-69
2022/08/03 09:28:15;;;;;;;5.72;2.85;;;35.10;63.90;;;;;;5051151;28;20079;-70
2022/08/03 09:30:57;;;;;;;3.85;2.20;;;35.20;63.40;;;;;;5052525;28;20064;-72
2022/08/03 09:33:25;;;;;;;4.68;2.75;;;35.20;63.50;;;;;;5051247;28;20075;-71
2022/08/03 09:35:55;;;;;;;3.38;2.17;;;35.10;62.80;;;;;;5050815;28;20055;-70
2022/08/03 09:38:27;;;;;;;4.50;2.35;;;35.10;63.30;;;;;;5051149;28;20045;-71
2022/08/03 09:40:56;;;;;;;3.75;2.42;;;35.00;62.50;;;;;;5051269;28;20141;-69
2022/08/03 09:43:26;;;;;;;4.43;2.08;;;35.00;63.00;;;;;;5034529;28;20094;-70
2022/08/03 09:46:06;;;;;;;4.55;2.47;;;35.00;62.70;;;;;;5033865;28;20056;-69
2022/08/03 09:48:35;;;;;;;4.53;2.30;;;35.00;62.50;;;;;;5052074;28;20045;-70
2022/08/03 09:51:04;;;;;;;2.85;2.08;;;35.00;62.90;;;;;;5051002;28;20499;-69
2022/08/03 09:53:43;;;;;;;4.20;2.15;;;35.10;63.00;;;;;;5018164;28;20052;-72
2022/08/03 09:56:10;;;;;;;3.00;1.88;;;35.00;61.20;;;;;;5033665;28;20536;-71
2022/08/03 09:58:46;;;;;;;3.92;2.20;;;35.00;61.30;;;;;;5048867;28;20131;-70
2022/08/03 10:01:14;;;;;;;3.08;1.85;;;35.10;62.50;;;;;;5070002;28;20051;-72
2022/08/03 10:03:42;;;;;;;3.25;2.10;;;35.00;62.30;;;;;;5048581;28;20135;-71
2022/08/03 10:06:25;;;;;;;5.47;2.50;;;35.00;62.70;;;;;;5064496;28;20060;-74
2022/08/03 10:09:13;;;;;;;7.22;2.17;;;34.80;62.30;;;;;;5065607;28;20044;-71
2022/08/03 10:11:42;;;;;;;4.97;2.35;;;34.60;61.90;;;;;;5068365;28;20047;-70
2022/08/03 10:14:17;;;;;;;4.85;2.33;;;34.60;62.70;;;;;;5049448;28;20136;-72
2022/08/03 10:16:47;;;;;;;3.63;2.15;;;34.80;63.70;;;;;;5048214;28;20048;-70
2022/08/03 10:19:15;;;;;;;4.63;2.35;;;34.60;62.80;;;;;;5047666;28;20441;-68
2022/08/03 10:21:54;;;;;;;3.58;2.22;;;34.70;63.00;;;;;;5070428;28;20067;-72
2022/08/03 10:24:27;;;;;;;3.70;2.25;;;34.70;63.20;;;;;;5071782;28;20494;-70
2022/08/03 10:27:07;;;;;;;9.13;3.50;;;34.60;62.70;;;;;;5092005;28;20044;-69
2022/08/03 10:29:46;;;;;;;4.07;2.40;;;34.50;63.30;;;;;;5040590;28;20101;-69
2022/08/03 10:32:21;;;;;;;4.78;2.20;;;34.50;63.50;;;;;;5056469;28;20494;-69
2022/08/03 10:34:51;;;;;;;5.78;2.63;;;34.50;64.30;;;;;;5073964;28;20093;-69
2022/08/03 10:37:22;;;;;;;6.60;2.25;;;34.50;64.20;;;;;;5091869;28;20048;-70
2022/08/03 10:39:53;;;;;;;2.70;1.90;;;34.60;63.80;;;;;;5072263;28;20083;-70
2022/08/03 10:42:25;;;;;;;4.47;2.40;;;34.70;63.60;;;;;;5055660;28;20444;-72
2022/08/03 10:45:10;;;;;;;3.05;2.40;;;34.50;64.30;;;;;;5072397;28;20074;-72
2022/08/03 10:47:40;;;;;;;4.83;2.27;;;34.40;63.80;;;;;;5057298;28;20048;-70
2022/08/03 10:50:08;;;;;;;3.60;2.30;;;34.30;64.40;;;;;;5073775;28;20052;-70
2022/08/03 10:52:53;;;;;;;5.05;2.35;;;34.30;63.60;;;;;;5073696;28;20753;-70
2022/08/03 10:58:36;;;;;;;2.33;2.05;;;34.30;64.30;;;;;;5059726;28;20048;-70
2022/08/03 11:01:05;;;;;;;4.38;2.78;;;34.30;64.50;;;;;;5077389;28;20132;-70
2022/08/03 11:03:53;;;;;;;5.28;2.53;;;34.30;65.50;;;;;;5077484;28;20051;-68
2022/08/03 11:06:25;;;;;;;2.80;2.20;;;34.40;65.30;;;;;;5095562;28;20374;-70
2022/08/03 11:09:08;;;;;;;6.55;2.60;;;34.50;65.20;;;;;;5077445;28;20047;-68
2022/08/03 11:11:38;;;;;;;5.72;2.75;;;34.50;65.70;;;;;;5060640;28;20052;-69
2022/08/03 11:14:17;;;;;;;2.85;2.15;;;34.50;65.80;;;;;;5060397;28;20132;-69
2022/08/03 11:16:48;;;;;;;5.07;2.20;;;34.50;66.00;;;;;;5077087;28;20062;-68
2022/08/03 11:19:21;;;;;;;3.70;2.22;;;34.50;65.60;;;;;;5076962;28;20085;-68
2022/08/03 11:21:49;;;;;;;4.25;2.60;;;34.50;65.90;;;;;;5077198;28;20422;-73
2022/08/03 11:24:35;;;;;;;3.90;2.05;;;34.40;65.00;;;;;;5076784;28;20377;-69
2022/08/03 11:27:21;;;;;;;5.75;2.10;;;34.30;64.00;;;;;;5076764;28;20048;-69
2022/08/03 11:30:21;;;;;;;3.90;2.20;;;34.20;64.50;;;;;;5043880;28;20440;-68
2022/08/03 11:32:51;;;;;;;3.20;2.63;;;34.30;64.40;;;;;;5043187;28;20097;-68
2022/08/03 11:35:30;;;;;;;3.67;2.70;;;34.40;63.60;;;;;;5060412;28;20173;-68
2022/08/03 11:37:58;;;;;;;3.78;2.50;;;34.60;63.10;;;;;;5076456;28;20051;-68
2022/08/03 11:40:41;;;;;;;4.65;2.95;;;34.70;63.00;;;;;;5076741;28;20044;-68
2022/08/03 11:43:24;;;;;;;4.07;2.42;;;34.70;63.10;;;;;;5077117;28;20044;-68
2022/08/03 11:46:15;;;;;;;3.85;2.78;;;34.70;63.00;;;;;;5076857;28;20055;-68
2022/08/03 11:48:46;;;;;;;5.15;2.53;;;34.80;63.10;;;;;;5060268;28;20036;-68
2022/08/03 11:51:28;;;;;;;4.32;3.17;;;34.60;62.90;;;;;;5076564;28;20079;-68
2022/08/03 11:53:57;;;;;;;5.32;2.78;;;34.60;63.00;;;;;;5094330;28;20059;-70
2022/08/03 11:56:25;;;;;;;5.70;2.78;;;34.70;62.70;;;;;;5059761;28;20054;-69
2022/08/03 11:58:56;;;;;;;7.30;3.67;;;34.60;62.30;;;;;;5058982;28;20047;-69
2022/08/03 12:01:30;;;;;;;4.68;3.25;;;34.50;62.40;;;;;;5094343;28;20055;-68
2022/08/03 12:04:03;;;;;;;5.60;2.80;;;34.50;61.60;;;;;;5076328;28;20130;-69
2022/08/03 12:06:53;;;;;;;4.05;2.95;;;34.40;62.30;;;;;;5094446;28;20075;-69
2022/08/03 12:09:20;;;;;;;3.20;2.53;;;34.40;62.30;;;;;;5059095;28;20048;-69
2022/08/03 12:11:49;;;;;;;4.78;2.47;;;34.50;61.70;;;;;;5043254;28;20594;-71
2022/08/03 12:14:18;;;;;;;4.38;2.63;;;34.60;61.90;;;;;;5093952;28;20048;-68
2022/08/03 12:16:47;;;;;;;4.05;2.78;;;34.50;61.50;;;;;;5076107;28;20489;-68
2022/08/03 12:19:15;;;;;;;3.47;2.20;;;34.60;61.60;;;;;;5075953;28;20066;-68
2022/08/03 12:21:50;;;;;;;3.72;2.50;;;34.60;61.50;;;;;;5093863;28;20044;-68
2022/08/03 12:24:17;;;;;;;3.70;2.80;;;34.60;61.60;;;;;;5059144;28;20052;-68
2022/08/03 12:26:50;;;;;;;3.83;2.63;;;34.70;61.50;;;;;;5075946;28;20490;-68
2022/08/03 12:29:24;;;;;;;4.50;2.30;;;34.70;60.90;;;;;;5093930;28;20052;-68
2022/08/03 12:31:52;;;;;;;3.30;2.58;;;34.60;60.80;;;;;;5093580;28;20040;-69
2022/08/03 12:34:20;;;;;;;3.80;2.22;;;34.60;60.80;;;;;;5059230;28;20132;-68
2022/08/03 12:36:55;;;;;;;3.47;2.33;;;34.50;59.80;;;;;;5075645;28;20048;-68
2022/08/03 12:39:25;;;;;;;4.25;2.20;;;34.30;60.70;;;;;;5093415;28;20043;-69
2022/08/03 12:41:54;;;;;;;7.93;2.70;;;34.30;61.40;;;;;;5075530;28;20586;-69
2022/08/03 12:44:30;;;;;;;3.08;2.13;;;34.20;62.00;;;;;;5075790;28;20047;-69
2022/08/03 12:46:59;;;;;;;4.00;2.35;;;34.10;61.10;;;;;;5059112;28;20056;-70
2022/08/03 12:49:28;;;;;;;3.33;2.40;;;34.20;61.70;;;;;;5075504;28;20509;-68
2022/08/03 12:51:59;;;;;;;3.15;2.25;;;34.10;62.00;;;;;;5075578;28;20055;-69
2022/08/03 12:54:34;;;;;;;4.53;2.72;;;34.10;62.20;;;;;;5093596;28;20051;-69
2022/08/03 12:57:11;;;;;;;3.30;2.22;;;34.10;62.40;;;;;;5042479;28;20071;-68
2022/08/03 12:59:53;;;;;;;3.40;2.65;;;34.20;62.40;;;;;;5058739;28;20040;-68
2022/08/03 13:02:22;;;;;;;3.35;2.05;;;34.20;62.00;;;;;;5074704;28;20074;-68
2022/08/03 13:04:52;;;;;;;3.15;2.47;;;34.20;62.60;;;;;;5075345;28;20551;-68
2022/08/03 13:07:21;;;;;;;4.28;2.40;;;34.10;62.50;;;;;;5093318;28;20048;-69
2022/08/03 13:09:51;;;;;;;4.57;2.90;;;34.10;62.00;;;;;;5075225;28;20054;-68
2022/08/03 13:12:28;;;;;;;5.55;2.47;;;34.10;62.80;;;;;;5074707;28;20047;-69
2022/08/03 13:14:59;;;;;;;5.25;2.35;;;34.10;63.50;;;;;;5075183;28;20053;-69
2022/08/03 13:17:27;;;;;;;3.85;2.75;;;34.20;64.50;;;;;;5074839;28;20044;-69
2022/08/03 13:19:55;;;;;;;3.53;2.47;;;34.10;64.40;;;;;;5074005;28;20127;-69